createdAt,value
2023-03-12T00:00:49.270Z,82.56
2023-03-12T00:01:50.767Z,81.99
2023-03-12T00:02:53.696Z,81.25
2023-03-12T00:03:55.350Z,81.49
2023-03-12T00:04:58.177Z,82.14
2023-03-12T00:06:09.778Z,82.80
2023-03-12T00:07:12.933Z,82.12
2023-03-12T00:08:15.811Z,84.12
2023-03-12T00:09:18.253Z,83.96
2023-03-12T00:10:20.516Z,83.04
2023-03-12T00:11:23.219Z,81.97
2023-03-12T00:12:25.029Z,82.75
2023-03-12T00:13:27.606Z,82.70
2023-03-12T00:14:29.237Z,82.45
2023-03-12T00:15:31.955Z,82.54
2023-03-12T00:16:34.679Z,82.23
2023-03-12T00:17:36.649Z,81.65
2023-03-12T00:18:40.131Z,82.14
2023-03-12T00:19:41.669Z,82.42
2023-03-12T00:20:44.157Z,82.60
2023-03-12T00:21:45.756Z,81.85
2023-03-12T00:22:48.330Z,80.78
2023-03-12T00:23:52.425Z,80.33
2023-03-12T00:24:57.147Z,80.65
2023-03-12T00:26:02.158Z,81.31
2023-03-12T00:27:04.937Z,81.01
2023-03-12T00:28:06.456Z,80.39
2023-03-12T00:29:08.977Z,79.93
2023-03-12T00:30:11.874Z,80.92
2023-03-12T00:31:16.661Z,80.39
2023-03-12T00:32:18.448Z,80.11
2023-03-12T00:33:20.928Z,81.43
2023-03-12T00:34:22.719Z,81.30
2023-03-12T00:35:25.731Z,81.85
2023-03-12T00:36:29.879Z,82.66
2023-03-12T00:37:33.391Z,81.90
2023-03-12T00:38:35.008Z,80.75
2023-03-12T00:39:38.910Z,80.15
2023-03-12T00:40:40.526Z,79.89
2023-03-12T00:41:43.073Z,79.66
2023-03-12T00:42:44.648Z,80.55
2023-03-12T00:43:47.217Z,80.81
2023-03-12T00:44:48.798Z,80.85
2023-03-12T00:45:51.375Z,79.96
2023-03-12T00:46:53.027Z,79.37
2023-03-12T00:47:55.488Z,79.32
2023-03-12T00:48:57.014Z,78.81
2023-03-12T00:49:59.619Z,78.12
2023-03-12T00:51:02.063Z,77.36
2023-03-12T00:52:05.316Z,77.33
2023-03-12T00:53:07.840Z,78.22
2023-03-12T00:54:09.617Z,78.28
2023-03-12T00:55:13.475Z,79.73
2023-03-12T00:56:15.714Z,79.14
2023-03-12T00:57:18.163Z,79.81
2023-03-12T00:58:19.749Z,80.28
2023-03-12T00:59:22.293Z,79.67
2023-03-12T01:00:24.101Z,79.66
2023-03-12T01:01:27.636Z,80.24
2023-03-12T01:02:29.169Z,81.81
2023-03-12T01:03:31.737Z,82.12
2023-03-12T01:04:33.442Z,81.58
2023-03-12T01:05:37.768Z,81.05
2023-03-12T01:06:39.486Z,81.32
2023-03-12T01:07:42.248Z,82.01
2023-03-12T01:08:44.174Z,80.95
2023-03-12T01:09:46.676Z,80.25
2023-03-12T01:10:49.925Z,80.45
2023-03-12T01:11:53.015Z,80.74
2023-03-12T01:12:54.536Z,80.17
2023-03-12T01:13:57.028Z,80.76
2023-03-12T01:14:58.597Z,81.77
2023-03-12T01:16:01.209Z,82.60
2023-03-12T01:17:02.789Z,83.18
2023-03-12T01:18:05.441Z,84.30
2023-03-12T01:19:07.034Z,83.93
2023-03-12T01:20:11.284Z,85.18
2023-03-12T01:21:14.192Z,85.30
2023-03-12T01:22:15.762Z,85.08
2023-03-12T01:23:18.319Z,83.54
2023-03-12T01:24:19.928Z,82.64
2023-03-12T01:25:22.562Z,83.75
2023-03-12T01:26:25.549Z,84.09
2023-03-12T01:27:28.122Z,83.79
2023-03-12T01:28:30.669Z,82.95
2023-03-12T01:29:32.235Z,83.86
2023-03-12T01:30:34.751Z,83.35
2023-03-12T01:31:37.584Z,82.53
2023-03-12T01:32:39.192Z,81.64
2023-03-12T01:33:42.018Z,83.26
2023-03-12T01:34:43.779Z,83.75
2023-03-12T01:35:46.484Z,83.15
2023-03-12T01:36:48.197Z,83.31
2023-03-12T01:37:50.871Z,81.94
2023-03-12T01:38:53.813Z,81.69
2023-03-12T01:39:56.355Z,80.51
2023-03-12T01:40:58.003Z,79.91
2023-03-12T01:42:02.133Z,79.49
2023-03-12T01:43:24.938Z,78.95
2023-03-12T01:44:27.457Z,80.73
2023-03-12T01:46:03.555Z,80.58
2023-03-12T01:47:06.582Z,80.70
2023-03-12T01:48:08.393Z,80.63
2023-03-12T01:49:13.759Z,80.88
2023-03-12T01:50:15.500Z,81.16
2023-03-12T01:51:19.555Z,81.10
2023-03-12T01:52:23.266Z,80.35
2023-03-12T01:53:25.965Z,79.25
2023-03-12T01:54:34.610Z,78.88
2023-03-12T01:55:36.432Z,78.50
2023-03-12T01:56:39.801Z,78.18
2023-03-12T01:57:47.208Z,78.90
2023-03-12T01:58:53.808Z,78.41
2023-03-12T02:00:00.718Z,77.92
2023-03-12T02:01:02.459Z,78.14
2023-03-12T02:02:06.474Z,79.32
2023-03-12T02:03:10.330Z,79.80
2023-03-12T02:04:13.995Z,80.47
2023-03-12T02:05:22.779Z,81.25
2023-03-12T02:06:31.466Z,81.21
2023-03-12T02:07:35.701Z,82.51
2023-03-12T02:08:39.632Z,83.00
2023-03-12T02:09:44.805Z,83.58
2023-03-12T02:10:46.655Z,84.05
2023-03-12T02:11:49.215Z,84.22
2023-03-12T02:12:52.329Z,84.01
2023-03-12T02:13:54.867Z,83.42
2023-03-12T02:14:56.540Z,82.35
2023-03-12T02:15:59.489Z,81.54
2023-03-12T02:17:01.196Z,81.32
2023-03-12T02:18:04.139Z,80.93
2023-03-12T02:19:16.609Z,81.20
2023-03-12T02:20:25.727Z,81.46
2023-03-12T02:21:33.680Z,82.20
2023-03-12T02:22:37.013Z,83.33
2023-03-12T02:23:45.331Z,83.30
2023-03-12T02:24:54.633Z,83.20
2023-03-12T02:26:00.071Z,83.96
2023-03-12T02:27:04.633Z,84.07
2023-03-12T02:28:08.478Z,83.65
2023-03-12T02:29:12.188Z,83.51
2023-03-12T02:30:16.017Z,83.94
2023-03-12T02:31:22.435Z,82.67
2023-03-12T02:32:28.342Z,82.64
2023-03-12T02:33:30.973Z,81.57
2023-03-12T02:34:32.559Z,82.08
2023-03-12T02:35:35.423Z,81.12
2023-03-12T02:36:37.341Z,80.31
2023-03-12T02:37:48.815Z,80.57
2023-03-12T02:38:51.913Z,81.25
2023-03-12T02:40:00.618Z,81.38
2023-03-12T02:41:09.949Z,80.91
2023-03-12T02:42:12.929Z,79.96
2023-03-12T02:43:15.028Z,79.04
2023-03-12T02:44:19.976Z,78.19
2023-03-12T02:45:22.621Z,77.64
2023-03-12T02:46:25.295Z,77.59
2023-03-12T02:47:28.004Z,76.98
2023-03-12T02:48:29.558Z,77.25
2023-03-12T02:49:34.778Z,77.09
2023-03-12T02:50:36.433Z,76.82
2023-03-12T02:51:39.177Z,76.80
2023-03-12T02:52:40.804Z,77.05
2023-03-12T02:53:43.596Z,77.63
2023-03-12T02:54:46.036Z,78.27
2023-03-12T02:55:47.617Z,79.98
2023-03-12T02:56:52.506Z,79.97
2023-03-12T02:57:54.117Z,79.51
2023-03-12T02:58:56.925Z,79.21
2023-03-12T02:59:58.481Z,79.34
2023-03-12T03:01:01.098Z,79.19
2023-03-12T03:02:04.488Z,79.18
2023-03-12T03:03:06.331Z,79.32
2023-03-12T03:04:22.458Z,78.66
2023-03-12T03:05:24.002Z,78.23
2023-03-12T03:06:27.090Z,78.89
2023-03-12T03:07:29.044Z,79.44
2023-03-12T03:08:31.502Z,79.66
2023-03-12T03:09:34.205Z,79.30
2023-03-12T03:10:35.752Z,78.60
2023-03-12T03:11:38.406Z,77.91
2023-03-12T03:12:41.300Z,77.49
2023-03-12T03:13:43.864Z,77.65
2023-03-12T03:14:45.414Z,77.49
2023-03-12T03:15:48.440Z,77.18
2023-03-12T03:16:50.729Z,77.31
2023-03-12T03:17:53.229Z,77.26
2023-03-12T03:18:54.785Z,76.85
2023-03-12T03:19:57.658Z,77.32
2023-03-12T03:21:01.376Z,76.73
2023-03-12T03:22:04.283Z,76.83
2023-03-12T03:23:05.902Z,76.83
2023-03-12T03:24:09.078Z,77.04
2023-03-12T03:25:11.325Z,77.02
2023-03-12T03:26:14.916Z,76.67
2023-03-12T03:27:16.563Z,76.50
2023-03-12T03:28:20.410Z,76.93
2023-03-12T03:29:22.235Z,77.29
2023-03-12T03:30:24.981Z,77.21
2023-03-12T03:31:26.663Z,76.41
2023-03-12T03:32:29.760Z,76.74
2023-03-12T03:33:34.215Z,77.06
2023-03-12T03:34:36.748Z,76.99
2023-03-12T03:35:38.454Z,76.91
2023-03-12T03:36:41.018Z,77.10
2023-03-12T03:37:42.635Z,76.93
2023-03-12T03:38:49.234Z,77.60
2023-03-12T03:39:50.734Z,77.78
2023-03-12T03:40:54.257Z,77.38
2023-03-12T03:41:55.782Z,77.25
2023-03-12T03:42:58.309Z,77.39
2023-03-12T03:44:01.230Z,77.26
2023-03-12T03:45:04.149Z,77.46
2023-03-12T03:46:06.488Z,77.14
2023-03-12T03:47:09.013Z,77.84
2023-03-12T03:48:10.700Z,78.38
2023-03-12T03:49:13.245Z,77.94
2023-03-12T03:50:14.793Z,78.24
2023-03-12T03:51:17.731Z,77.73
2023-03-12T03:52:19.379Z,77.83
2023-03-12T03:53:22.559Z,78.00
2023-03-12T03:54:24.096Z,77.84
2023-03-12T03:55:26.802Z,77.77
2023-03-12T03:56:28.836Z,77.99
2023-03-12T03:57:31.274Z,78.16
2023-03-12T03:58:32.906Z,78.09
2023-03-12T03:59:36.861Z,78.08
2023-03-12T04:00:38.503Z,77.78
2023-03-12T04:01:41.352Z,78.03
2023-03-12T04:02:42.891Z,78.55
2023-03-12T04:03:45.680Z,78.45
2023-03-12T04:04:47.269Z,78.50
2023-03-12T04:05:55.712Z,78.66
2023-03-12T04:06:57.593Z,78.78
2023-03-12T04:08:03.083Z,78.60
2023-03-12T04:09:04.708Z,80.15
2023-03-12T04:10:08.159Z,80.82
2023-03-12T04:11:11.700Z,80.73
2023-03-12T04:12:14.500Z,81.21
2023-03-12T04:13:16.302Z,81.01
2023-03-12T04:14:18.904Z,80.56
2023-03-12T04:15:22.334Z,79.88
2023-03-12T04:16:24.904Z,79.90
2023-03-12T04:17:26.501Z,80.12
2023-03-12T04:18:29.203Z,80.59
2023-03-12T04:19:30.694Z,80.70
2023-03-12T04:20:33.201Z,80.03
2023-03-12T04:21:34.784Z,79.42
2023-03-12T04:22:37.966Z,79.25
2023-03-12T04:23:39.887Z,78.63
2023-03-12T04:24:42.437Z,78.42
2023-03-12T04:25:44.019Z,78.00
2023-03-12T04:26:46.512Z,77.50
2023-03-12T04:27:48.092Z,77.79
2023-03-12T04:28:50.701Z,78.00
2023-03-12T04:29:52.205Z,77.76
2023-03-12T04:30:59.509Z,77.14
2023-03-12T04:32:01.152Z,77.59
2023-03-12T04:33:03.670Z,77.43
2023-03-12T04:34:05.218Z,77.63
2023-03-12T04:35:08.198Z,77.16
2023-03-12T04:36:11.099Z,77.92
2023-03-12T04:37:14.975Z,77.97
2023-03-12T04:38:16.572Z,78.16
2023-03-12T04:39:20.280Z,77.83
2023-03-12T04:40:22.220Z,78.21
2023-03-12T04:41:24.834Z,77.98
2023-03-12T04:42:27.289Z,77.86
2023-03-12T04:43:29.831Z,77.85
2023-03-12T04:44:32.443Z,77.31
2023-03-12T04:45:34.062Z,77.48
2023-03-12T04:46:38.287Z,77.61
2023-03-12T04:47:39.830Z,78.00
2023-03-12T04:48:42.332Z,78.12
2023-03-12T04:49:43.904Z,77.59
2023-03-12T04:50:46.392Z,78.53
2023-03-12T04:51:48.289Z,79.18
2023-03-12T04:52:50.969Z,79.56
2023-03-12T04:53:52.691Z,79.45
2023-03-12T04:54:55.788Z,78.86
2023-03-12T04:55:57.613Z,79.63
2023-03-12T04:57:00.173Z,80.03
2023-03-12T04:58:01.749Z,79.61
2023-03-12T04:59:04.718Z,79.93
2023-03-12T05:00:11.001Z,79.03
2023-03-12T05:01:22.932Z,78.64
2023-03-12T05:02:25.956Z,77.98
2023-03-12T05:03:28.677Z,77.72
2023-03-12T05:04:33.162Z,78.93
2023-03-12T05:05:36.502Z,78.60
2023-03-12T05:06:38.106Z,78.42
2023-03-12T05:07:40.716Z,78.99
2023-03-12T05:08:42.425Z,77.90
2023-03-12T05:09:46.291Z,78.16
2023-03-12T05:10:47.891Z,78.42
2023-03-12T05:11:50.400Z,78.30
2023-03-12T05:12:52.218Z,77.60
2023-03-12T05:13:54.743Z,78.01
2023-03-12T05:14:56.301Z,79.24
2023-03-12T05:15:58.779Z,79.67
2023-03-12T05:17:00.473Z,78.74
2023-03-12T05:18:04.521Z,78.23
2023-03-12T05:19:07.414Z,78.56
2023-03-12T05:20:10.407Z,77.94
2023-03-12T05:21:15.624Z,77.85
2023-03-12T05:22:18.198Z,77.13
2023-03-12T05:23:20.934Z,76.44
2023-03-12T05:24:22.729Z,76.83
2023-03-12T05:25:25.226Z,76.43
2023-03-12T05:26:29.310Z,76.40
2023-03-12T05:27:32.097Z,76.06
2023-03-12T05:28:33.881Z,76.03
2023-03-12T05:29:36.757Z,75.77
2023-03-12T05:30:39.605Z,75.75
2023-03-12T05:31:42.316Z,75.89
2023-03-12T05:32:43.988Z,76.02
2023-03-12T05:33:48.676Z,75.94
2023-03-12T05:34:51.308Z,76.28
2023-03-12T05:35:54.411Z,76.10
2023-03-12T05:36:57.145Z,75.77
2023-03-12T05:37:59.170Z,76.32
2023-03-12T05:39:01.622Z,75.88
2023-03-12T05:40:04.584Z,75.77
2023-03-12T05:41:07.819Z,76.14
2023-03-12T05:42:09.378Z,76.38
2023-03-12T05:43:11.841Z,76.12
2023-03-12T05:44:15.979Z,76.03
2023-03-12T05:45:19.729Z,76.32
2023-03-12T05:46:21.276Z,76.24
2023-03-12T05:47:23.751Z,76.23
2023-03-12T05:48:26.319Z,76.25
2023-03-12T05:49:29.561Z,76.28
2023-03-12T05:50:32.019Z,76.06
2023-03-12T05:51:33.842Z,76.34
2023-03-12T05:52:36.331Z,76.88
2023-03-12T05:53:37.821Z,76.95
2023-03-12T05:54:40.721Z,77.33
2023-03-12T05:55:42.318Z,77.15
2023-03-12T05:56:44.946Z,77.17
2023-03-12T05:57:47.118Z,77.50
2023-03-12T05:58:50.772Z,77.27
2023-03-12T05:59:52.321Z,77.14
2023-03-12T06:00:54.793Z,77.40
2023-03-12T06:01:56.869Z,77.25
2023-03-12T06:02:59.448Z,78.65
2023-03-12T06:04:01.184Z,80.41
2023-03-12T06:05:06.131Z,80.12
2023-03-12T06:06:07.672Z,79.73
2023-03-12T06:07:10.204Z,79.74
2023-03-12T06:08:11.957Z,78.75
2023-03-12T06:09:14.448Z,78.61
2023-03-12T06:10:16.505Z,78.75
2023-03-12T06:11:19.569Z,78.46
2023-03-12T06:12:21.105Z,78.43
2023-03-12T06:13:25.203Z,78.41
2023-03-12T06:14:27.880Z,78.19
2023-03-12T06:15:29.419Z,78.65
2023-03-12T06:16:32.102Z,79.12
2023-03-12T06:17:33.646Z,78.82
2023-03-12T06:18:37.415Z,78.40
2023-03-12T06:19:39.096Z,78.44
2023-03-12T06:20:43.080Z,78.43
2023-03-12T06:21:44.689Z,78.17
2023-03-12T06:22:47.256Z,78.46
2023-03-12T06:23:50.075Z,77.81
2023-03-12T06:24:52.665Z,77.29
2023-03-12T06:25:54.194Z,77.89
2023-03-12T06:26:57.098Z,78.17
2023-03-12T06:27:59.606Z,78.01
2023-03-12T06:29:01.186Z,79.53
2023-03-12T06:30:04.614Z,79.84
2023-03-12T06:31:07.543Z,79.26
2023-03-12T06:32:10.382Z,79.24
2023-03-12T06:33:11.872Z,78.93
2023-03-12T06:34:16.723Z,78.66
2023-03-12T06:35:18.484Z,78.69
2023-03-12T06:36:22.942Z,78.63
2023-03-12T06:37:24.504Z,78.61
2023-03-12T06:38:27.481Z,79.75
2023-03-12T06:39:30.200Z,79.84
2023-03-12T06:40:33.012Z,80.06
2023-03-12T06:41:34.781Z,79.37
2023-03-12T06:42:37.576Z,79.26
2023-03-12T06:43:40.270Z,79.29
2023-03-12T06:44:42.741Z,80.41
2023-03-12T06:45:44.287Z,80.18
2023-03-12T06:46:46.877Z,80.34
2023-03-12T06:47:49.650Z,80.38
2023-03-12T06:48:51.547Z,80.38
2023-03-12T06:49:54.219Z,79.92
2023-03-12T06:50:55.873Z,79.26
2023-03-12T06:51:59.786Z,78.60
2023-03-12T06:53:01.327Z,78.08
2023-03-12T06:54:04.942Z,77.83
2023-03-12T06:55:07.173Z,77.72
2023-03-12T06:56:10.065Z,78.06
2023-03-12T06:57:11.607Z,78.03
2023-03-12T06:58:14.242Z,78.94
2023-03-12T06:59:16.196Z,79.61
2023-03-12T07:00:19.455Z,79.13
2023-03-12T07:01:21.271Z,79.37
2023-03-12T07:02:23.803Z,78.84
2023-03-12T07:03:25.583Z,79.25
2023-03-12T07:04:28.335Z,78.43
2023-03-12T07:05:30.256Z,77.82
2023-03-12T07:06:32.854Z,77.18
2023-03-12T07:07:36.149Z,76.77
2023-03-12T07:08:38.962Z,75.75
2023-03-12T07:09:40.516Z,75.95
2023-03-12T07:10:43.255Z,75.87
2023-03-12T07:11:46.045Z,75.65
2023-03-12T07:12:47.877Z,75.99
2023-03-12T07:13:51.570Z,75.88
2023-03-12T07:14:53.172Z,75.70
2023-03-12T07:15:56.174Z,75.37
2023-03-12T07:16:59.001Z,75.68
2023-03-12T07:18:02.196Z,75.10
2023-03-12T07:19:04.902Z,75.47
2023-03-12T07:20:08.227Z,75.27
2023-03-12T07:21:10.983Z,75.69
2023-03-12T07:22:12.542Z,75.52
2023-03-12T07:23:16.610Z,76.27
2023-03-12T07:24:19.309Z,76.20
2023-03-12T07:25:20.796Z,76.47
2023-03-12T07:26:23.390Z,76.16
2023-03-12T07:27:25.047Z,76.48
2023-03-12T07:28:27.589Z,75.67
2023-03-12T07:29:30.231Z,74.45
2023-03-12T07:30:33.843Z,73.95
2023-03-12T07:31:36.424Z,73.90
2023-03-12T07:32:38.121Z,73.86
2023-03-12T07:33:41.558Z,73.37
2023-03-12T07:34:43.178Z,72.45
2023-03-12T07:35:49.187Z,72.85
2023-03-12T07:36:52.781Z,73.30
2023-03-12T07:37:54.514Z,72.66
2023-03-12T07:38:59.065Z,72.20
2023-03-12T07:40:00.935Z,71.43
2023-03-12T07:41:03.646Z,71.39
2023-03-12T07:42:05.552Z,71.00
2023-03-12T07:43:11.230Z,71.13
2023-03-12T07:44:13.857Z,71.21
2023-03-12T07:45:15.589Z,70.71
2023-03-12T07:46:21.261Z,70.36
2023-03-12T07:47:24.526Z,70.33
2023-03-12T07:48:27.368Z,70.42
2023-03-12T07:49:28.997Z,69.66
2023-03-12T07:50:31.544Z,69.66
2023-03-12T07:51:34.359Z,69.74
2023-03-12T07:52:36.426Z,68.36
2023-03-12T07:53:38.921Z,68.70
2023-03-12T07:54:42.233Z,68.57
2023-03-12T07:55:46.094Z,68.33
2023-03-12T07:56:49.410Z,68.04
2023-03-12T07:57:51.489Z,67.81
2023-03-12T07:58:54.457Z,68.09
2023-03-12T07:59:56.207Z,68.44
2023-03-12T08:00:58.864Z,67.90
2023-03-12T08:02:00.731Z,68.42
2023-03-12T08:03:03.581Z,68.42
2023-03-12T08:04:05.375Z,67.35
2023-03-12T08:05:08.735Z,66.66
2023-03-12T08:06:10.619Z,67.77
2023-03-12T08:07:13.437Z,69.46
2023-03-12T08:08:17.248Z,68.31
2023-03-12T08:09:18.791Z,66.99
2023-03-12T08:10:23.340Z,67.48
2023-03-12T08:11:25.857Z,68.81
2023-03-12T08:12:27.804Z,67.68
2023-03-12T08:13:30.425Z,68.11
2023-03-12T08:14:31.985Z,68.35
2023-03-12T08:15:34.932Z,66.99
2023-03-12T08:16:36.850Z,66.52
2023-03-12T08:17:39.506Z,67.28
2023-03-12T08:18:43.246Z,67.27
2023-03-12T08:19:44.767Z,67.56
2023-03-12T08:20:50.626Z,67.60
2023-03-12T08:21:53.268Z,66.34
2023-03-12T08:22:55.805Z,66.96
2023-03-12T08:23:58.333Z,67.37
2023-03-12T08:24:59.907Z,67.83
2023-03-12T08:26:04.433Z,69.71
2023-03-12T08:27:06.112Z,69.27
2023-03-12T08:28:08.620Z,68.58
2023-03-12T08:29:11.124Z,67.83
2023-03-12T08:30:13.157Z,69.44
2023-03-12T08:31:15.869Z,68.31
2023-03-12T08:32:17.534Z,67.22
2023-03-12T08:33:21.118Z,66.62
2023-03-12T08:34:22.623Z,69.06
2023-03-12T08:35:25.414Z,68.28
2023-03-12T08:36:27.922Z,68.24
2023-03-12T08:37:30.333Z,67.74
2023-03-12T08:38:33.026Z,67.13
2023-03-12T08:39:35.888Z,65.39
2023-03-12T08:40:37.454Z,64.84
2023-03-12T08:41:41.265Z,65.80
2023-03-12T08:42:44.065Z,64.41
2023-03-12T08:43:46.836Z,67.45
2023-03-12T08:44:48.520Z,64.28
2023-03-12T08:45:54.948Z,64.82
2023-03-12T08:46:56.868Z,65.68
2023-03-12T08:47:59.349Z,63.16
2023-03-12T08:49:00.900Z,63.92
2023-03-12T08:50:03.620Z,64.07
2023-03-12T08:51:07.605Z,63.21
2023-03-12T08:52:09.289Z,64.83
2023-03-12T08:53:12.130Z,63.23
2023-03-12T08:54:13.675Z,63.89
2023-03-12T08:55:16.629Z,63.56
2023-03-12T08:56:19.689Z,63.84
2023-03-12T08:57:22.672Z,63.97
2023-03-12T08:58:27.087Z,63.48
2023-03-12T08:59:29.627Z,63.44
2023-03-12T09:00:31.201Z,63.57
2023-03-12T09:01:33.860Z,63.76
2023-03-12T09:02:35.660Z,63.84
2023-03-12T09:03:38.303Z,64.65
2023-03-12T09:04:41.293Z,64.10
2023-03-12T09:05:43.587Z,64.52
2023-03-12T09:06:46.692Z,63.12
2023-03-12T09:07:50.130Z,62.88
2023-03-12T09:08:51.970Z,62.19
2023-03-12T09:09:55.797Z,62.70
2023-03-12T09:10:57.520Z,62.88
2023-03-12T09:12:00.176Z,62.52
2023-03-12T09:13:04.268Z,61.02
2023-03-12T09:15:29.440Z,63.32
2023-03-12T09:16:31.151Z,62.85
2023-03-12T09:17:33.796Z,64.21
2023-03-12T09:18:37.793Z,63.03
2023-03-12T09:19:41.354Z,64.07
2023-03-12T09:20:43.139Z,60.10
2023-03-12T09:21:45.607Z,61.37
2023-03-12T09:22:48.283Z,61.71
2023-03-12T09:23:51.031Z,60.79
2023-03-12T09:24:53.906Z,60.76
2023-03-12T09:25:57.512Z,60.75
2023-03-12T09:27:00.215Z,60.97
2023-03-12T09:28:05.443Z,60.40
2023-03-12T09:29:07.955Z,60.77
2023-03-12T09:30:14.102Z,59.94
2023-03-12T09:31:16.753Z,59.84
2023-03-12T09:32:18.374Z,58.72
2023-03-12T09:33:20.931Z,59.03
2023-03-12T09:34:22.506Z,58.50
2023-03-12T09:35:25.017Z,58.86
2023-03-12T09:36:26.534Z,60.63
2023-03-12T09:37:29.383Z,59.44
2023-03-12T09:38:31.931Z,59.06
2023-03-12T09:39:34.550Z,58.59
2023-03-12T09:40:38.504Z,59.25
2023-03-12T09:41:43.776Z,58.22
2023-03-12T09:42:50.938Z,58.53
2023-03-12T09:43:59.895Z,57.93
2023-03-12T09:45:05.936Z,58.13
2023-03-12T09:46:15.869Z,59.06
2023-03-12T09:47:25.746Z,58.65
2023-03-12T09:48:34.450Z,58.72
2023-03-12T09:49:41.961Z,57.85
2023-03-12T09:50:48.723Z,58.30
2023-03-12T09:51:55.562Z,58.17
2023-03-12T09:53:01.660Z,58.62
2023-03-12T09:54:07.216Z,58.26
2023-03-12T09:55:15.083Z,58.48
2023-03-12T09:56:20.093Z,58.36
2023-03-12T09:57:25.663Z,57.30
2023-03-12T09:58:31.379Z,56.88
2023-03-12T09:59:36.982Z,57.55
2023-03-12T10:00:39.805Z,58.54
2023-03-12T10:01:48.026Z,60.47
2023-03-12T10:03:11.446Z,60.17
2023-03-12T10:04:24.129Z,60.35
2023-03-12T10:05:36.704Z,58.09
2023-03-12T10:06:47.198Z,58.29
2023-03-12T10:07:53.303Z,58.01
2023-03-12T10:09:07.880Z,57.97
2023-03-12T10:10:38.089Z,57.53
2023-03-12T10:11:47.701Z,58.16
2023-03-12T10:13:14.645Z,58.19
2023-03-12T10:14:26.829Z,57.58
2023-03-12T10:15:40.402Z,58.41
2023-03-12T10:16:55.138Z,57.52
2023-03-12T10:18:13.917Z,58.11
2023-03-12T10:19:38.597Z,57.56
2023-03-12T10:20:59.392Z,57.88
2023-03-12T10:22:07.637Z,59.05
2023-03-12T10:23:14.173Z,58.67
2023-03-12T10:24:29.016Z,59.63
2023-03-12T10:25:41.895Z,59.04
2023-03-12T10:26:47.905Z,58.05
2023-03-12T10:27:51.160Z,57.95
2023-03-12T10:28:59.058Z,57.42
2023-03-12T10:30:03.494Z,55.25
2023-03-12T10:31:14.540Z,56.17
2023-03-12T10:32:20.597Z,57.68
2023-03-12T10:33:26.685Z,58.22
2023-03-12T10:34:32.931Z,58.34
2023-03-12T10:35:36.420Z,58.49
2023-03-12T10:36:40.940Z,57.79
2023-03-12T10:37:45.375Z,58.23
2023-03-12T10:38:49.689Z,58.26
2023-03-12T10:39:52.976Z,59.61
2023-03-12T10:40:55.549Z,59.18
2023-03-12T10:42:01.725Z,57.96
2023-03-12T10:43:06.884Z,58.62
2023-03-12T10:44:09.647Z,56.87
2023-03-12T10:45:23.199Z,56.43
2023-03-12T10:46:55.523Z,56.59
2023-03-12T10:48:03.278Z,55.30
2023-03-12T10:49:30.885Z,54.96
2023-03-12T10:50:34.848Z,55.18
2023-03-12T10:51:54.501Z,55.10
2023-03-12T10:53:20.536Z,56.27
2023-03-12T10:54:23.463Z,57.53
2023-03-12T10:55:29.426Z,57.62
2023-03-12T10:56:49.189Z,57.84
2023-03-12T10:57:52.066Z,56.96
2023-03-12T10:58:54.310Z,56.85
2023-03-12T11:00:11.979Z,57.06
2023-03-12T11:01:22.110Z,56.75
2023-03-12T11:02:33.535Z,56.50
2023-03-12T11:03:37.988Z,56.14
2023-03-12T11:04:39.538Z,57.09
2023-03-12T11:05:48.929Z,55.19
2023-03-12T11:07:20.611Z,55.88
2023-03-12T11:08:27.376Z,55.40
2023-03-12T11:09:28.940Z,55.11
2023-03-12T11:10:44.268Z,55.29
2023-03-12T11:11:47.669Z,55.82
2023-03-12T11:13:00.301Z,55.54
2023-03-12T11:14:18.116Z,56.30
2023-03-12T11:15:22.216Z,55.94
2023-03-12T11:16:31.910Z,55.73
2023-03-12T11:17:34.004Z,56.51
2023-03-12T11:18:40.480Z,56.78
2023-03-12T11:19:42.023Z,56.74
2023-03-12T11:20:44.682Z,55.76
2023-03-12T11:21:56.288Z,56.79
2023-03-12T11:22:59.091Z,56.80
2023-03-12T11:24:10.604Z,56.54
2023-03-12T11:25:22.135Z,54.65
2023-03-12T11:26:26.599Z,54.74
2023-03-12T11:27:38.438Z,55.44
2023-03-12T11:28:44.560Z,54.40
2023-03-12T11:29:49.082Z,54.72
2023-03-12T11:30:54.936Z,54.26
2023-03-12T11:32:04.604Z,54.06
2023-03-12T11:33:06.795Z,53.81
2023-03-12T11:34:20.108Z,53.00
2023-03-12T11:35:37.389Z,53.31
2023-03-12T11:36:48.764Z,54.37
2023-03-12T11:38:01.110Z,55.03
2023-03-12T11:39:15.222Z,55.38
2023-03-12T11:40:27.789Z,55.55
2023-03-12T11:41:58.630Z,55.79
2023-03-12T11:43:39.967Z,55.19
2023-03-12T11:44:56.700Z,54.74
2023-03-12T11:46:16.798Z,55.54
2023-03-12T11:47:39.952Z,55.55
2023-03-12T11:48:54.427Z,55.28
2023-03-12T11:50:21.188Z,54.88
2023-03-12T11:51:36.928Z,55.33
2023-03-12T11:52:51.274Z,54.66
2023-03-12T11:54:09.158Z,55.28
2023-03-12T11:55:21.413Z,56.19
2023-03-12T11:56:29.927Z,55.95
2023-03-12T11:57:42.958Z,57.13
2023-03-12T11:58:58.630Z,57.85
2023-03-12T12:00:12.613Z,56.88
2023-03-12T12:01:27.095Z,56.89
2023-03-12T12:02:55.919Z,56.65
2023-03-12T12:04:19.325Z,56.42
2023-03-12T12:05:46.260Z,57.87
2023-03-12T12:06:59.133Z,57.18
2023-03-12T12:08:23.469Z,56.80
2023-03-12T12:09:33.915Z,56.51
2023-03-12T12:10:44.706Z,56.63
2023-03-12T12:12:05.745Z,56.09
2023-03-12T12:13:14.656Z,54.95
2023-03-12T12:14:30.517Z,55.85
2023-03-12T12:15:39.522Z,55.72
2023-03-12T12:17:07.764Z,55.99
2023-03-12T12:18:30.484Z,55.43
2023-03-12T12:19:44.793Z,55.54
2023-03-12T12:20:59.237Z,55.27
2023-03-12T12:22:14.807Z,55.76
2023-03-12T12:23:18.476Z,57.50
2023-03-12T12:24:38.579Z,56.50
2023-03-12T12:25:57.665Z,57.22
2023-03-12T12:27:08.268Z,56.76
2023-03-12T12:28:30.411Z,56.71
2023-03-12T12:29:43.935Z,58.27
2023-03-12T12:31:01.864Z,59.20
2023-03-12T12:32:06.814Z,59.81
2023-03-12T12:33:22.875Z,60.81
2023-03-12T12:35:06.943Z,62.13
2023-03-12T12:36:10.901Z,63.84
2023-03-12T12:37:23.945Z,63.96
2023-03-12T12:38:32.680Z,65.22
2023-03-12T12:39:38.756Z,66.40
2023-03-12T12:40:43.590Z,67.03
2023-03-12T12:41:51.904Z,68.29
2023-03-12T12:43:15.395Z,70.28
2023-03-12T12:44:22.964Z,70.78
2023-03-12T12:45:26.259Z,71.11
2023-03-12T12:46:34.864Z,70.25
2023-03-12T12:47:43.826Z,69.67
2023-03-12T12:48:52.239Z,68.52
2023-03-12T12:49:58.252Z,69.39
2023-03-12T12:51:03.175Z,68.05
2023-03-12T12:52:08.969Z,67.44
2023-03-12T12:53:22.499Z,67.33
2023-03-12T12:54:33.237Z,66.57
2023-03-12T12:55:40.975Z,67.36
2023-03-12T12:56:49.663Z,67.48
2023-03-12T12:57:55.290Z,67.29
2023-03-12T12:59:09.651Z,67.34
2023-03-12T13:00:32.394Z,66.05
2023-03-12T13:01:35.328Z,66.12
2023-03-12T13:02:42.284Z,65.89
2023-03-12T13:03:46.899Z,66.13
2023-03-12T13:04:50.015Z,66.17
2023-03-12T13:05:58.288Z,66.11
2023-03-12T13:07:27.882Z,64.89
2023-03-12T13:08:56.640Z,66.49
2023-03-12T13:10:00.140Z,67.46
2023-03-12T13:11:17.159Z,68.08
2023-03-12T13:12:23.029Z,68.19
2023-03-12T13:13:26.892Z,68.13
2023-03-12T13:14:39.351Z,67.88
2023-03-12T13:15:44.013Z,68.82
2023-03-12T13:16:47.111Z,70.72
2023-03-12T13:18:06.689Z,70.72
2023-03-12T13:19:25.195Z,70.49
2023-03-12T13:20:34.669Z,71.07
2023-03-12T13:21:40.127Z,71.22
2023-03-12T13:22:57.891Z,70.71
2023-03-12T13:24:17.946Z,71.89
2023-03-12T13:25:32.005Z,73.01
2023-03-12T13:26:49.012Z,75.21
2023-03-12T13:27:59.486Z,74.36
2023-03-12T13:29:19.943Z,74.71
2023-03-12T13:30:48.232Z,73.49
2023-03-12T13:31:50.847Z,73.62
2023-03-12T13:33:10.648Z,73.79
2023-03-12T13:34:46.406Z,74.60
2023-03-12T13:36:04.759Z,74.26
2023-03-12T13:37:19.453Z,75.07
2023-03-12T13:38:36.471Z,73.59
2023-03-12T13:39:39.394Z,73.65
2023-03-12T13:41:03.048Z,74.36
2023-03-12T13:42:28.265Z,74.49
2023-03-12T13:43:50.553Z,74.21
2023-03-12T13:44:53.907Z,73.86
2023-03-12T13:46:00.968Z,73.75
2023-03-12T13:47:05.844Z,75.17
2023-03-12T13:48:16.265Z,76.05
2023-03-12T13:49:20.745Z,75.98
2023-03-12T13:50:22.537Z,75.23
2023-03-12T13:51:26.681Z,75.26
2023-03-12T13:52:32.146Z,76.30
2023-03-12T13:53:38.616Z,76.24
2023-03-12T13:54:46.749Z,75.63
2023-03-12T13:55:59.289Z,75.10
2023-03-12T13:57:05.726Z,74.12
2023-03-12T13:58:15.862Z,74.06
2023-03-12T13:59:17.945Z,74.23
2023-03-12T14:00:26.705Z,74.68
2023-03-12T14:01:31.200Z,75.48
2023-03-12T14:02:36.483Z,74.72
2023-03-12T14:03:41.809Z,73.54
2023-03-12T14:04:45.467Z,73.31